createdAt,value
2018-06-18T00:33:29.719Z,82.60
2018-06-18T00:35:57.540Z,91.30
2018-06-18T00:38:25.253Z,91.20
2018-06-18T00:40:53.008Z,90.60
2018-06-18T00:43:20.753Z,91.00
2018-06-18T00:45:48.547Z,91.20
2018-06-18T00:48:16.284Z,91.10
2018-06-18T00:50:44.015Z,91.30
2018-06-18T00:53:11.743Z,91.50
2018-06-18T00:55:50.739Z,91.20
2018-06-18T00:58:18.451Z,91.20
2018-06-18T01:00:46.187Z,91.10
2018-06-18T01:03:13.928Z,90.50
2018-06-18T01:05:41.691Z,90.90
2018-06-18T01:08:09.432Z,90.60
2018-06-18T01:10:37.463Z,90.70
2018-06-18T01:13:05.532Z,90.80
2018-06-18T01:15:33.269Z,90.50
2018-06-18T01:18:00.991Z,90.10
2018-06-18T01:24:22.595Z,90.60
2018-06-18T01:26:50.295Z,90.70
2018-06-18T01:29:18.041Z,90.20
2018-06-18T01:31:45.783Z,90.60
2018-06-18T01:34:20.392Z,90.80
2018-06-18T01:36:48.106Z,91.30
2018-06-18T01:39:15.847Z,91.30
2018-06-18T01:41:43.707Z,90.90
2018-06-18T01:44:11.450Z,91.40
2018-06-18T01:46:39.188Z,91.00
2018-06-18T01:49:06.921Z,91.30
2018-06-18T01:51:34.672Z,90.50
2018-06-18T01:54:02.411Z,91.00
2018-06-18T01:56:30.228Z,91.50
2018-06-18T01:58:57.935Z,91.00
2018-06-18T02:01:25.680Z,91.00
2018-06-18T02:03:53.431Z,90.90
2018-06-18T02:06:21.452Z,90.60
2018-06-18T02:08:49.172Z,91.20
2018-06-18T02:11:16.883Z,90.20
2018-06-18T02:13:44.616Z,90.60
2018-06-18T02:16:12.399Z,90.90
2018-06-18T02:18:40.128Z,90.60
2018-06-18T02:21:08.270Z,90.50
2018-06-18T02:23:36.113Z,89.30
2018-06-18T02:26:03.947Z,90.30
2018-06-18T02:28:37.412Z,89.80
2018-06-18T02:31:10.808Z,90.00
2018-06-18T02:33:44.604Z,90.00
2018-06-18T02:36:17.950Z,90.30
2018-06-18T02:39:06.754Z,89.80
2018-06-18T02:41:34.760Z,89.30
2018-06-18T02:44:02.676Z,90.30
2018-06-18T02:46:30.724Z,90.00
2018-06-18T02:48:58.501Z,90.00
2018-06-18T02:51:26.428Z,89.30
2018-06-18T02:53:54.220Z,89.10
2018-06-18T02:56:59.140Z,89.40
2018-06-18T02:59:26.904Z,89.50
2018-06-18T03:01:54.620Z,89.30
2018-06-18T03:04:22.363Z,89.30
2018-06-18T03:06:50.155Z,89.10
2018-06-18T03:09:17.871Z,89.30
2018-06-18T03:11:45.599Z,89.30
2018-06-18T03:14:13.356Z,89.10
2018-06-18T03:16:41.076Z,89.00
2018-06-18T03:19:14.384Z,88.60
2018-06-18T03:21:47.747Z,89.90
2018-06-18T03:24:21.034Z,89.20
2018-06-18T03:26:54.427Z,89.90
2018-06-18T03:29:24.434Z,90.00
2018-06-18T03:34:20.623Z,90.60
2018-06-18T03:36:48.412Z,90.60
2018-06-18T03:39:16.117Z,90.80
2018-06-18T03:44:16.971Z,90.60
2018-06-18T03:46:44.736Z,90.60
2018-06-18T03:51:40.084Z,90.30
2018-06-18T03:54:07.799Z,90.20
2018-06-18T03:56:35.530Z,89.60
2018-06-18T03:59:03.266Z,90.10
2018-06-18T04:01:45.104Z,90.10
2018-06-18T04:04:18.548Z,89.90
2018-06-18T04:06:51.844Z,89.00
2018-06-18T04:09:25.103Z,88.60
2018-06-18T04:11:58.473Z,89.60
2018-06-18T04:14:26.184Z,89.10
2018-06-18T04:19:21.582Z,89.10
2018-06-18T04:21:49.305Z,89.30
2018-06-18T04:24:17.062Z,90.50
2018-06-18T04:26:44.779Z,90.20
2018-06-18T04:29:12.524Z,89.90
2018-06-18T04:31:40.241Z,90.10
2018-06-18T04:34:44.120Z,89.30
2018-06-18T04:37:11.851Z,88.30
2018-06-18T04:39:39.588Z,88.50
2018-06-18T04:42:13.001Z,88.60
2018-06-18T04:44:46.445Z,88.10
2018-06-18T04:47:19.867Z,88.40
2018-06-18T04:49:53.274Z,87.90
2018-06-18T04:52:21.020Z,87.70
2018-06-18T04:57:16.352Z,87.30
2018-06-18T04:59:47.785Z,86.60
2018-06-18T05:04:43.168Z,85.40
2018-06-18T05:07:10.920Z,85.80
2018-06-18T05:10:15.499Z,86.90
2018-06-18T05:12:43.226Z,85.60
2018-06-18T05:15:10.991Z,85.30
2018-06-18T05:17:38.738Z,84.20
2018-06-18T05:20:06.460Z,84.50
2018-06-18T05:22:34.196Z,85.10
2018-06-18T05:25:01.928Z,85.50
2018-06-18T05:27:32.763Z,84.80
2018-06-18T05:30:04.931Z,85.30
2018-06-18T05:32:32.868Z,84.10
2018-06-18T05:35:00.584Z,85.10
2018-06-18T05:37:37.552Z,84.70
2018-06-18T05:40:05.305Z,85.50
2018-06-18T05:42:33.034Z,86.00
2018-06-18T05:45:00.783Z,85.40
2018-06-18T05:47:28.498Z,84.40
2018-06-18T05:49:56.232Z,83.40
2018-06-18T05:52:23.959Z,83.40
2018-06-18T05:54:51.695Z,82.20
2018-06-18T05:57:19.428Z,81.90
2018-06-18T06:02:14.838Z,80.10
2018-06-18T06:04:42.686Z,80.50
2018-06-18T06:07:10.523Z,80.00
2018-06-18T06:09:38.243Z,78.30
2018-06-18T06:12:07.248Z,77.80
2018-06-18T06:17:02.591Z,78.50
2018-06-18T06:19:30.315Z,78.30
2018-06-18T06:21:58.316Z,77.90
2018-06-18T06:26:53.704Z,76.50
2018-06-18T06:29:21.457Z,77.70
2018-06-18T06:31:49.194Z,77.90
2018-06-18T06:34:16.890Z,78.00
2018-06-18T06:36:44.630Z,76.10
2018-06-18T06:39:12.420Z,74.90
2018-06-18T06:41:43.116Z,76.50
2018-06-18T06:44:10.811Z,74.40
2018-06-18T06:46:38.540Z,71.00
2018-06-18T06:49:06.283Z,69.50
2018-06-18T06:54:01.643Z,69.80
2018-06-18T06:56:29.371Z,68.10
2018-06-18T07:01:24.757Z,72.80
2018-06-18T07:03:52.636Z,71.80
2018-06-18T07:06:20.402Z,69.90
2018-06-18T07:08:48.137Z,70.10
2018-06-18T07:11:15.953Z,71.20
2018-06-18T07:13:43.768Z,73.20
2018-06-18T07:18:39.139Z,74.40
2018-06-18T07:21:06.900Z,75.30
2018-06-18T07:28:29.915Z,75.10
2018-06-18T07:30:57.685Z,77.20
2018-06-18T07:33:25.423Z,79.10
2018-06-18T07:38:20.854Z,78.60
2018-06-18T07:43:16.168Z,79.40
2018-06-18T07:45:43.934Z,79.20
2018-06-18T07:48:11.765Z,80.50
2018-06-18T07:53:07.228Z,78.50
2018-06-18T07:55:34.990Z,78.10
2018-06-18T07:58:02.711Z,77.90
2018-06-18T08:00:30.439Z,78.10
2018-06-18T08:05:25.896Z,79.70
2018-06-18T08:07:53.732Z,80.20
2018-06-18T08:12:49.068Z,76.00
2018-06-18T08:15:16.775Z,75.90
2018-06-18T08:17:44.483Z,74.90
2018-06-18T08:27:37.545Z,72.30
2018-06-18T08:30:05.683Z,74.30
2018-06-18T08:32:33.820Z,73.50
2018-06-18T08:35:02.714Z,71.60
2018-06-18T08:42:26.260Z,69.50
2018-06-18T08:44:54.268Z,70.50
2018-06-18T08:47:21.968Z,68.30
2018-06-18T08:49:55.283Z,68.10
2018-06-18T08:52:28.656Z,67.00
2018-06-18T08:57:35.140Z,64.40
2018-06-18T09:05:11.101Z,61.80
2018-06-18T09:07:44.528Z,60.50
2018-06-18T09:12:40.068Z,56.90
2018-06-18T09:15:08.052Z,55.70
2018-06-18T09:17:36.011Z,54.20
2018-06-18T09:20:04.232Z,55.00
2018-06-18T09:22:31.980Z,55.30
2018-06-18T09:24:59.701Z,59.60
2018-06-18T09:27:27.456Z,61.00
2018-06-18T09:30:00.915Z,60.80
2018-06-18T09:32:28.803Z,62.30
2018-06-18T09:37:24.045Z,64.60
2018-06-18T09:44:47.091Z,65.40
2018-06-18T09:47:14.881Z,64.10
2018-06-18T09:49:48.228Z,62.00
2018-06-18T09:52:21.721Z,62.40
2018-06-18T09:54:55.155Z,61.40
2018-06-18T09:57:28.616Z,62.60
2018-06-18T10:00:00.056Z,62.10
2018-06-18T10:02:28.697Z,62.80
2018-06-18T10:04:57.840Z,63.10
2018-06-18T10:07:25.612Z,61.80
2018-06-18T10:09:53.572Z,64.60
2018-06-18T10:12:21.336Z,64.20
2018-06-18T10:14:49.096Z,64.50
2018-06-18T10:17:17.599Z,65.00
2018-06-18T10:19:45.308Z,64.80
2018-06-18T10:22:13.077Z,63.70
2018-06-18T10:24:40.809Z,63.50
2018-06-18T10:27:08.523Z,63.10
2018-06-18T10:32:05.269Z,60.60
2018-06-18T10:34:38.596Z,55.40
2018-06-18T10:37:11.924Z,52.70
2018-06-18T10:39:45.323Z,48.30
2018-06-18T10:42:18.796Z,46.20
2018-06-18T10:44:46.607Z,48.90
2018-06-18T10:47:14.305Z,49.20
2018-06-18T10:49:42.047Z,47.80
2018-06-18T10:52:09.776Z,47.50
2018-06-18T10:54:37.537Z,47.60
2018-06-18T10:57:05.408Z,48.10
2018-06-18T10:59:33.131Z,51.70
2018-06-18T11:02:00.873Z,52.00
2018-06-18T11:04:28.812Z,54.10
2018-06-18T11:06:56.674Z,55.40
2018-06-18T11:09:24.760Z,54.80
2018-06-18T11:11:52.580Z,55.90
2018-06-18T11:14:20.320Z,57.20
2018-06-18T11:16:53.712Z,56.50
2018-06-18T11:22:00.455Z,57.60
2018-06-18T11:24:33.836Z,56.20
2018-06-18T11:27:01.609Z,57.20
2018-06-18T11:29:29.361Z,56.80
2018-06-18T11:31:57.131Z,58.40
2018-06-18T11:34:24.875Z,58.30
2018-06-18T11:36:52.766Z,57.80
2018-06-18T11:39:20.529Z,57.60
2018-06-18T11:44:15.876Z,56.80
2018-06-18T11:46:43.622Z,57.70
2018-06-18T11:49:11.360Z,56.70
2018-06-18T11:54:06.727Z,58.30
2018-06-18T11:56:34.493Z,59.70
2018-06-18T11:59:07.924Z,56.70
2018-06-18T12:01:41.272Z,55.40
2018-06-18T12:04:14.667Z,55.50
2018-06-18T12:06:48.187Z,55.00
2018-06-18T12:09:21.597Z,56.20
2018-06-18T12:11:49.817Z,56.80
2018-06-18T12:14:17.528Z,58.40
2018-06-18T12:16:45.297Z,59.70
2018-06-18T12:19:13.009Z,59.70
2018-06-18T12:21:40.745Z,61.00
2018-06-18T12:24:09.110Z,60.30
2018-06-18T12:26:36.977Z,60.20
2018-06-18T12:29:04.768Z,60.70
2018-06-18T12:34:00.124Z,58.90
2018-06-18T12:36:27.963Z,59.50
2018-06-18T12:38:55.735Z,62.10
2018-06-18T12:41:23.544Z,61.80
2018-06-18T12:47:27.136Z,62.50
2018-06-18T12:50:00.429Z,61.80
2018-06-18T12:52:40.649Z,63.30
2018-06-18T12:55:14.121Z,66.20
2018-06-18T12:57:41.840Z,70.00
2018-06-18T13:05:07.517Z,67.10
2018-06-18T13:07:35.251Z,66.10
2018-06-18T13:10:03.191Z,65.80
2018-06-18T13:12:30.896Z,62.30
2018-06-18T13:14:58.654Z,62.70
2018-06-18T13:19:53.972Z,61.70
2018-06-18T13:24:49.387Z,57.20
2018-06-18T13:29:44.772Z,59.60
2018-06-18T13:32:12.615Z,59.80
2018-06-18T13:34:40.323Z,59.70
2018-06-18T13:37:13.780Z,61.70
2018-06-18T13:39:46.999Z,63.70
2018-06-18T13:42:20.391Z,64.20
2018-06-18T13:44:53.867Z,67.20
2018-06-18T13:47:27.068Z,66.80
2018-06-18T13:49:56.044Z,69.20
2018-06-18T13:52:25.160Z,70.20
2018-06-18T13:54:53.508Z,70.20
2018-06-18T13:57:21.315Z,68.90
2018-06-18T13:59:49.237Z,68.80
2018-06-18T14:02:17.002Z,69.10
2018-06-18T14:07:12.445Z,67.90
2018-06-18T14:09:40.140Z,66.60
2018-06-18T14:12:07.848Z,66.20
2018-06-18T14:14:35.584Z,69.60
2018-06-18T14:17:03.275Z,67.40
2018-06-18T14:19:36.811Z,68.10
2018-06-18T14:22:04.550Z,67.10
2018-06-18T14:24:32.281Z,67.60
2018-06-18T14:27:00.052Z,66.60
2018-06-18T14:32:00.952Z,64.70
2018-06-18T14:34:34.255Z,63.60
2018-06-18T14:37:07.523Z,64.60
2018-06-18T14:39:40.896Z,64.00
2018-06-18T14:42:09.098Z,64.30
2018-06-18T14:44:37.701Z,63.50
2018-06-18T14:47:05.487Z,63.60
2018-06-18T14:49:33.244Z,61.70
2018-06-18T14:52:01.004Z,63.10
2018-06-18T14:54:28.729Z,65.20
2018-06-18T14:59:45.212Z,62.70
2018-06-18T15:02:12.932Z,63.00
2018-06-18T15:04:40.676Z,63.80
2018-06-18T15:07:08.838Z,63.10
2018-06-18T15:09:36.737Z,62.80
2018-06-18T15:12:04.461Z,62.80
2018-06-18T15:14:32.238Z,60.80
2018-06-18T15:19:27.604Z,59.90
2018-06-18T15:21:57.139Z,59.10
2018-06-18T15:24:33.083Z,58.10
2018-06-18T15:27:00.859Z,58.00
2018-06-18T15:29:28.537Z,59.60
2018-06-18T15:31:56.224Z,57.10
2018-06-18T15:36:51.592Z,59.20
2018-06-18T15:39:19.372Z,60.10
2018-06-18T15:41:47.160Z,59.90
2018-06-18T15:44:15.095Z,60.30
2018-06-18T15:46:42.660Z,59.50
2018-06-18T15:49:10.461Z,60.80
2018-06-18T15:51:38.300Z,60.30
2018-06-18T15:54:06.419Z,62.00
2018-06-18T15:56:34.209Z,61.80
2018-06-18T15:59:02.525Z,62.00
2018-06-18T16:01:30.243Z,61.40
2018-06-18T16:03:58.028Z,61.50
2018-06-18T16:06:25.756Z,63.50
2018-06-18T16:08:53.532Z,63.00
2018-06-18T16:11:21.261Z,62.00
2018-06-18T16:13:49.017Z,63.50
2018-06-18T16:16:16.731Z,63.90
2018-06-18T16:18:44.504Z,64.30
2018-06-18T16:21:12.196Z,64.20
2018-06-18T16:23:39.955Z,63.90
2018-06-18T16:26:07.671Z,63.80
2018-06-18T16:28:35.411Z,63.30
2018-06-18T16:31:03.179Z,63.30
2018-06-18T16:33:30.981Z,61.90
2018-06-18T16:35:58.719Z,61.60
2018-06-18T16:40:54.027Z,62.00
2018-06-18T16:43:21.724Z,62.20
2018-06-18T16:45:49.479Z,62.70
2018-06-18T16:48:17.340Z,60.60
2018-06-18T16:50:45.028Z,61.30
2018-06-18T16:53:12.757Z,60.80
2018-06-18T16:58:08.257Z,63.40
2018-06-18T17:00:36.040Z,63.30
2018-06-18T17:03:03.724Z,63.00
2018-06-18T17:07:59.080Z,61.80
2018-06-18T17:10:26.803Z,62.10
2018-06-18T17:12:54.535Z,61.20
2018-06-18T17:15:22.239Z,62.20
2018-06-18T17:20:17.742Z,62.00
2018-06-18T17:22:45.456Z,62.00
2018-06-18T17:25:13.173Z,60.80
2018-06-18T17:27:40.951Z,62.00
2018-06-18T17:32:36.443Z,62.00
2018-06-18T17:35:04.334Z,61.30
2018-06-18T17:37:32.046Z,62.00
2018-06-18T17:39:59.763Z,63.10
2018-06-18T17:42:27.498Z,63.20
2018-06-18T17:44:55.229Z,63.60
2018-06-18T17:47:23.036Z,64.10
2018-06-18T17:49:50.791Z,64.30
2018-06-18T17:52:18.548Z,65.20
2018-06-18T17:54:46.292Z,65.20
2018-06-18T17:57:14.079Z,65.60
2018-06-18T17:59:41.803Z,66.90
2018-06-18T18:02:09.570Z,65.30
2018-06-18T18:04:37.308Z,66.40
2018-06-18T18:07:05.075Z,65.30
2018-06-18T18:09:32.860Z,65.80
2018-06-18T18:12:00.720Z,65.50
2018-06-18T18:14:28.426Z,66.60
2018-06-18T18:16:56.160Z,66.30
2018-06-18T18:19:23.866Z,66.00
2018-06-18T18:21:51.608Z,66.00
2018-06-18T18:24:19.351Z,65.70
2018-06-18T18:26:47.109Z,66.90
2018-06-18T18:29:14.901Z,66.50
2018-06-18T18:31:42.668Z,66.60
2018-06-18T18:34:10.395Z,67.70
2018-06-18T18:36:38.111Z,65.70
2018-06-18T18:39:07.800Z,66.20
2018-06-18T18:41:35.564Z,67.40
2018-06-18T18:44:03.409Z,67.40
2018-06-18T18:46:31.180Z,67.70
2018-06-18T18:48:58.926Z,68.00
2018-06-18T18:53:54.244Z,70.40
2018-06-18T18:56:33.285Z,70.40
2018-06-18T19:01:43.126Z,71.60
2018-06-18T19:04:13.716Z,72.10
2018-06-18T19:06:41.548Z,72.10
2018-06-18T19:11:37.788Z,74.30
2018-06-18T19:16:33.197Z,75.90
2018-06-18T19:19:01.737Z,74.90
2018-06-18T19:21:29.495Z,76.00
2018-06-18T19:23:57.259Z,76.10
2018-06-18T19:26:25.142Z,76.90
2018-06-18T19:28:52.909Z,76.80
2018-06-18T19:33:55.942Z,79.40
2018-06-18T19:36:23.757Z,80.40
2018-06-18T19:38:51.488Z,80.60
2018-06-18T19:41:19.242Z,81.70
2018-06-18T19:43:46.959Z,83.00
2018-06-18T19:46:15.752Z,81.90
2018-06-18T19:48:50.347Z,83.30
2018-06-18T19:53:45.785Z,83.90
2018-06-18T19:56:13.614Z,85.30
2018-06-18T19:58:41.420Z,86.90
2018-06-18T20:01:09.427Z,88.30
2018-06-18T20:03:37.220Z,89.20
2018-06-18T20:06:05.044Z,90.30
2018-06-18T20:08:32.867Z,90.20
2018-06-18T20:11:00.623Z,90.40
2018-06-18T20:15:56.105Z,90.60
2018-06-18T20:18:23.868Z,90.50
2018-06-18T20:20:51.680Z,91.40
2018-06-18T20:23:21.601Z,90.30
2018-06-18T20:25:53.696Z,91.00
2018-06-18T20:28:21.511Z,90.40
2018-06-18T20:30:49.327Z,90.70
2018-06-18T20:33:18.571Z,87.80
2018-06-18T20:35:50.199Z,87.60
2018-06-18T20:38:17.985Z,87.10
2018-06-18T20:40:45.739Z,86.70
2018-06-18T20:43:13.564Z,88.00
2018-06-18T20:45:41.341Z,86.20
2018-06-18T20:48:09.177Z,88.20
2018-06-18T20:50:36.927Z,87.00
2018-06-18T20:53:04.736Z,87.90
2018-06-18T20:55:32.502Z,87.10
2018-06-18T20:58:00.307Z,86.30
2018-06-18T21:00:28.077Z,87.10
2018-06-18T21:02:55.836Z,87.70
2018-06-18T21:05:23.716Z,88.70
2018-06-18T21:07:51.505Z,89.50
2018-06-18T21:10:19.359Z,90.60
2018-06-18T21:12:47.168Z,90.10
2018-06-18T21:15:14.981Z,90.50
2018-06-18T21:17:42.752Z,90.10
2018-06-18T21:20:10.532Z,90.20
2018-06-18T21:25:06.986Z,90.30
2018-06-18T21:27:34.907Z,90.30
2018-06-18T21:30:02.740Z,90.20
2018-06-18T21:32:30.571Z,90.50
2018-06-18T21:37:25.964Z,91.20
2018-06-18T21:39:53.680Z,91.60
2018-06-18T21:44:54.872Z,90.70
2018-06-18T21:47:22.722Z,90.70
2018-06-18T21:49:50.465Z,91.00
2018-06-18T21:54:45.831Z,90.40
2018-06-18T21:57:13.600Z,90.90
2018-06-18T21:59:41.399Z,90.70
2018-06-18T22:02:09.192Z,90.20
2018-06-18T22:07:04.968Z,90.90
2018-06-18T22:09:32.800Z,90.80
2018-06-18T22:12:00.541Z,90.20
2018-06-18T22:14:28.328Z,90.40
2018-06-18T22:16:56.129Z,90.40
2018-06-18T22:19:23.894Z,90.60
2018-06-18T22:21:51.672Z,91.20
2018-06-18T22:24:19.455Z,91.20
2018-06-18T22:26:47.260Z,91.20
2018-06-18T22:29:15.758Z,90.80
2018-06-18T22:31:43.577Z,90.90
2018-06-18T22:34:11.455Z,90.90
2018-06-18T22:36:39.297Z,91.40
2018-06-18T22:39:09.060Z,90.20
2018-06-18T22:41:36.866Z,90.40
2018-06-18T22:44:04.838Z,90.00
2018-06-18T22:46:32.634Z,85.50
2018-06-18T22:49:00.460Z,86.40
2018-06-18T22:51:28.224Z,87.50
2018-06-18T22:53:56.046Z,86.60
2018-06-18T22:56:23.888Z,87.90
2018-06-18T22:58:51.732Z,87.80
2018-06-18T23:01:19.485Z,89.10
2018-06-18T23:03:47.278Z,88.80
2018-06-18T23:06:15.120Z,89.10
2018-06-18T23:08:43.036Z,90.30
2018-06-18T23:13:38.917Z,90.60
2018-06-18T23:16:08.101Z,91.00
2018-06-18T23:18:35.966Z,90.80
2018-06-18T23:21:03.788Z,91.10
2018-06-18T23:23:31.633Z,91.20
2018-06-18T23:25:59.591Z,91.30
2018-06-18T23:28:32.152Z,91.50
2018-06-18T23:30:59.939Z,93.30
2018-06-18T23:33:27.700Z,93.10
2018-06-18T23:35:55.466Z,93.70
2018-06-18T23:38:23.327Z,94.40
2018-06-18T23:40:51.129Z,94.30
2018-06-18T23:43:19.960Z,94.50
2018-06-18T23:45:47.852Z,94.80
2018-06-18T23:48:15.703Z,95.70
2018-06-18T23:50:43.737Z,96.50
2018-06-18T23:55:39.771Z,96.90
2018-06-18T23:58:07.588Z,97.60
